createdAt,value
2023-04-07T00:01:52.470Z,19.10
2023-04-07T00:04:19.716Z,19.10
2023-04-07T00:06:46.811Z,18.85
2023-04-07T00:09:13.712Z,18.52
2023-04-07T00:11:40.662Z,18.67
2023-04-07T00:14:07.592Z,20.52
2023-04-07T00:16:34.568Z,16.90
2023-04-07T00:19:01.736Z,17.70
2023-04-07T00:21:28.688Z,15.57
2023-04-07T00:23:55.850Z,16.75
2023-04-07T00:26:23.056Z,17.52
2023-04-07T00:28:49.976Z,18.15
2023-04-07T00:31:17.000Z,16.15
2023-04-07T00:33:43.982Z,16.27
2023-04-07T00:36:11.289Z,15.88
2023-04-07T00:38:38.214Z,14.88
2023-04-07T00:41:05.664Z,15.55
2023-04-07T00:43:32.776Z,18.95
2023-04-07T00:45:59.808Z,16.52
2023-04-07T00:48:27.865Z,17.38
2023-04-07T00:50:55.024Z,16.95
2023-04-07T00:53:22.082Z,14.45
2023-04-07T00:55:49.390Z,15.98
2023-04-07T00:58:16.357Z,15.40
2023-04-07T01:00:50.279Z,15.88
2023-04-07T01:03:53.259Z,14.38
2023-04-07T01:06:24.793Z,15.95
2023-04-07T01:09:23.067Z,13.82
2023-04-07T01:12:07.856Z,14.25
2023-04-07T01:14:41.244Z,13.68
2023-04-07T01:17:28.215Z,12.30
2023-04-07T01:20:08.387Z,12.52
2023-04-07T01:23:05.279Z,14.48
2023-04-07T01:25:38.163Z,15.00
2023-04-07T01:28:25.361Z,14.50
2023-04-07T01:30:56.752Z,14.57
2023-04-07T01:33:26.582Z,14.00
2023-04-07T01:35:55.073Z,13.23
2023-04-07T01:38:22.605Z,13.65
2023-04-07T01:40:50.763Z,13.52
2023-04-07T01:43:18.635Z,14.27
2023-04-07T01:45:46.142Z,14.63
2023-04-07T01:48:13.898Z,14.27
2023-04-07T01:50:41.557Z,14.25
2023-04-07T01:53:08.777Z,13.50
2023-04-07T01:55:36.136Z,13.10
2023-04-07T01:58:07.782Z,13.85
2023-04-07T02:00:36.835Z,13.98
2023-04-07T02:03:23.499Z,12.95
2023-04-07T02:05:57.629Z,13.43
2023-04-07T02:08:30.468Z,14.52
2023-04-07T02:11:00.380Z,12.40
2023-04-07T02:13:34.095Z,13.52
2023-04-07T02:16:02.633Z,12.40
2023-04-07T02:18:32.305Z,13.13
2023-04-07T02:21:01.317Z,11.30
2023-04-07T02:23:28.315Z,12.48
2023-04-07T02:25:58.466Z,11.77
2023-04-07T02:28:25.463Z,12.57
2023-04-07T02:30:52.462Z,13.25
2023-04-07T02:33:19.368Z,16.83
2023-04-07T02:35:46.356Z,14.32
2023-04-07T02:38:13.328Z,12.60
2023-04-07T02:40:40.455Z,11.80
2023-04-07T02:43:07.486Z,11.73
2023-04-07T02:45:34.459Z,13.18
2023-04-07T02:48:01.483Z,12.48
2023-04-07T02:50:29.223Z,12.77
2023-04-07T02:52:56.787Z,11.35
2023-04-07T02:55:23.857Z,11.85
2023-04-07T02:57:50.827Z,12.60
2023-04-07T03:00:31.799Z,13.02
2023-04-07T03:03:08.524Z,13.18
2023-04-07T03:05:38.401Z,13.07
2023-04-07T03:08:05.869Z,13.15
2023-04-07T03:10:32.941Z,12.98
2023-04-07T03:12:59.939Z,11.77
2023-04-07T03:15:27.356Z,12.90
2023-04-07T03:17:55.551Z,12.77
2023-04-07T03:20:22.938Z,13.48
2023-04-07T03:22:50.073Z,14.20
2023-04-07T03:25:27.555Z,12.23
2023-04-07T03:27:55.522Z,11.45
2023-04-07T03:30:23.535Z,11.25
2023-04-07T03:32:50.688Z,11.60
2023-04-07T03:35:17.807Z,12.10
2023-04-07T03:37:45.307Z,11.95
2023-04-07T03:40:16.437Z,11.73
2023-04-07T03:42:44.017Z,11.98
2023-04-07T03:45:13.123Z,12.05
2023-04-07T03:47:44.989Z,13.48
2023-04-07T03:50:12.720Z,12.02
2023-04-07T03:53:13.944Z,13.13
2023-04-07T03:55:41.823Z,12.45
2023-04-07T03:58:17.897Z,11.45
2023-04-07T04:00:47.681Z,11.80
2023-04-07T04:03:14.858Z,11.88
2023-04-07T04:05:55.900Z,12.10
2023-04-07T04:08:29.361Z,12.52
2023-04-07T04:10:56.408Z,12.20
2023-04-07T04:13:27.271Z,11.80
2023-04-07T04:15:56.576Z,12.85
2023-04-07T04:18:23.611Z,11.93
2023-04-07T04:20:52.417Z,10.85
2023-04-07T04:23:20.086Z,11.52
2023-04-07T04:25:48.136Z,11.00
2023-04-07T04:28:15.430Z,12.15
2023-04-07T04:30:42.655Z,12.77
2023-04-07T04:33:09.960Z,12.57
2023-04-07T04:35:42.595Z,12.10
2023-04-07T04:38:13.148Z,11.68
2023-04-07T04:40:45.371Z,11.75
2023-04-07T04:43:13.776Z,12.27
2023-04-07T04:45:42.178Z,11.73
2023-04-07T04:48:12.099Z,11.32
2023-04-07T04:50:39.389Z,12.73
2023-04-07T04:53:10.660Z,11.52
2023-04-07T04:55:47.239Z,11.73
2023-04-07T04:58:19.478Z,11.60
2023-04-07T05:00:49.516Z,10.82
2023-04-07T05:03:17.022Z,11.57
2023-04-07T05:05:49.395Z,11.10
2023-04-07T05:08:19.592Z,12.48
2023-04-07T05:10:47.702Z,10.77
2023-04-07T05:13:17.891Z,12.18
2023-04-07T05:15:46.144Z,12.05
2023-04-07T05:18:14.409Z,11.82
2023-04-07T05:20:41.595Z,11.82
2023-04-07T05:23:09.622Z,11.93
2023-04-07T05:25:37.682Z,11.63
2023-04-07T05:28:06.797Z,11.32
2023-04-07T05:30:34.530Z,12.20
2023-04-07T05:33:01.811Z,11.55
2023-04-07T05:38:17.203Z,11.38
2023-04-07T05:40:46.063Z,10.88
2023-04-07T05:43:19.303Z,12.18
2023-04-07T05:45:46.305Z,11.85
2023-04-07T05:48:13.438Z,12.25
2023-04-07T05:50:44.701Z,12.10
2023-04-07T05:53:15.537Z,11.90
2023-04-07T05:55:43.717Z,11.93
2023-04-07T05:58:14.810Z,11.50
2023-04-07T06:00:47.669Z,13.15
2023-04-07T06:03:17.399Z,12.10
2023-04-07T06:05:54.065Z,12.88
2023-04-07T06:08:22.455Z,12.07
2023-04-07T06:10:49.541Z,11.73
2023-04-07T06:13:16.692Z,13.68
2023-04-07T06:15:43.673Z,13.73
2023-04-07T06:18:10.709Z,12.75
2023-04-07T06:20:37.975Z,12.30
2023-04-07T06:23:05.008Z,12.00
2023-04-07T06:25:32.404Z,13.07
2023-04-07T06:28:01.276Z,13.45
2023-04-07T06:30:28.268Z,13.15
2023-04-07T06:32:55.407Z,12.05
2023-04-07T06:35:22.419Z,12.75
2023-04-07T06:37:49.371Z,12.75
2023-04-07T06:40:16.454Z,11.75
2023-04-07T06:42:43.401Z,13.55
2023-04-07T06:45:26.484Z,13.15
2023-04-07T06:47:53.418Z,13.60
2023-04-07T06:50:22.328Z,12.35
2023-04-07T06:52:49.393Z,13.80
2023-04-07T06:55:16.477Z,12.75
2023-04-07T06:57:43.491Z,12.88
2023-04-07T07:00:11.144Z,14.93
2023-04-07T07:02:38.363Z,14.77
2023-04-07T07:05:05.916Z,16.25
2023-04-07T07:07:32.848Z,15.90
2023-04-07T07:09:59.870Z,14.25
2023-04-07T07:12:26.816Z,15.73
2023-04-07T07:14:53.938Z,14.82
2023-04-07T07:17:20.902Z,15.50
2023-04-07T07:19:47.924Z,14.88
2023-04-07T07:22:14.796Z,14.18
2023-04-07T07:24:41.762Z,15.23
2023-04-07T07:27:08.668Z,15.25
2023-04-07T07:29:35.656Z,15.07
2023-04-07T07:32:02.608Z,14.85
2023-04-07T07:34:29.959Z,14.40
2023-04-07T07:36:56.843Z,14.93
2023-04-07T07:39:23.861Z,14.88
2023-04-07T07:41:51.538Z,13.50
2023-04-07T07:44:20.331Z,13.20
2023-04-07T07:46:47.242Z,13.27
2023-04-07T07:49:14.804Z,13.07
2023-04-07T07:51:41.956Z,13.93
2023-04-07T07:54:09.676Z,13.70
2023-04-07T07:56:36.643Z,14.35
2023-04-07T07:59:06.520Z,13.45
2023-04-07T08:01:33.917Z,13.77
2023-04-07T08:04:01.189Z,13.40
2023-04-07T08:06:29.262Z,13.15
2023-04-07T08:08:56.272Z,14.63
2023-04-07T08:11:23.242Z,14.77
2023-04-07T08:13:50.656Z,13.93
2023-04-07T08:16:17.888Z,13.70
2023-04-07T08:18:45.114Z,13.15
2023-04-07T08:21:12.944Z,13.98
2023-04-07T08:23:40.192Z,13.18
2023-04-07T08:26:07.489Z,12.48
2023-04-07T08:28:34.428Z,12.93
2023-04-07T08:31:01.356Z,12.77
2023-04-07T08:33:28.480Z,13.57
2023-04-07T08:35:55.450Z,12.25
2023-04-07T08:38:22.491Z,13.55
2023-04-07T08:41:14.807Z,12.90
2023-04-07T08:43:44.155Z,12.63
2023-04-07T08:46:11.690Z,12.70
2023-04-07T08:48:39.093Z,13.40
2023-04-07T08:51:08.509Z,12.88
2023-04-07T08:53:48.177Z,13.18
2023-04-07T08:56:16.240Z,11.55
2023-04-07T08:58:47.643Z,12.98
2023-04-07T09:01:16.668Z,12.32
2023-04-07T09:03:45.589Z,13.05
2023-04-07T09:06:12.797Z,12.57
2023-04-07T09:08:42.937Z,13.48
2023-04-07T09:11:09.955Z,11.82
2023-04-07T09:13:36.930Z,13.82
2023-04-07T09:16:04.385Z,12.75
2023-04-07T09:18:31.529Z,12.40
2023-04-07T09:20:59.790Z,13.10
2023-04-07T09:23:36.123Z,13.70
2023-04-07T09:26:18.680Z,13.20
2023-04-07T09:28:47.430Z,12.45
2023-04-07T09:31:14.604Z,13.55
2023-04-07T09:33:41.535Z,13.45
2023-04-07T09:36:08.761Z,14.02
2023-04-07T09:38:39.374Z,12.20
2023-04-07T09:41:16.841Z,12.73
2023-04-07T09:43:46.104Z,13.10
2023-04-07T09:46:15.607Z,13.02
2023-04-07T09:48:43.925Z,12.85
2023-04-07T09:51:18.419Z,13.27
2023-04-07T09:53:51.629Z,13.18
2023-04-07T09:56:22.447Z,10.15
2023-04-07T09:58:53.320Z,7.70
2023-04-07T10:01:21.969Z,6.45
2023-04-07T10:03:50.866Z,6.18
2023-04-07T10:06:19.410Z,6.05
2023-04-07T10:08:46.819Z,5.45
2023-04-07T10:11:15.916Z,6.65
2023-04-07T10:13:42.999Z,6.18
2023-04-07T10:16:10.053Z,6.40
2023-04-07T10:18:56.188Z,7.05
2023-04-07T10:21:23.750Z,6.65
2023-04-07T10:24:04.576Z,7.97
2023-04-07T10:26:35.163Z,5.82
2023-04-07T10:29:10.628Z,6.65
2023-04-07T10:31:39.670Z,9.48
2023-04-07T10:34:06.648Z,7.35
2023-04-07T10:36:34.855Z,7.25
2023-04-07T10:39:07.825Z,7.22
2023-04-07T10:41:39.336Z,7.97
2023-04-07T10:44:08.182Z,7.45
2023-04-07T10:47:01.308Z,7.68
2023-04-07T10:49:29.063Z,8.38
2023-04-07T10:52:14.873Z,8.38
2023-04-07T10:54:42.868Z,8.25
2023-04-07T10:57:17.118Z,6.97
2023-04-07T11:00:12.117Z,7.13
2023-04-07T11:02:40.546Z,6.93
2023-04-07T11:05:08.012Z,6.72
2023-04-07T11:07:50.220Z,7.32
2023-04-07T11:10:19.136Z,8.48
2023-04-07T11:12:58.923Z,8.02
2023-04-07T11:15:25.987Z,8.20
2023-04-07T11:18:11.711Z,7.63
2023-04-07T11:20:46.960Z,6.10
2023-04-07T11:23:18.484Z,5.35
2023-04-07T11:25:49.845Z,7.55
2023-04-07T11:28:17.429Z,6.55
2023-04-07T11:30:52.853Z,6.63
2023-04-07T11:33:22.374Z,7.38
2023-04-07T11:35:51.572Z,7.22
2023-04-07T11:38:19.559Z,8.02
2023-04-07T11:40:46.889Z,7.75
2023-04-07T11:43:19.008Z,7.93
2023-04-07T11:45:46.094Z,7.53
2023-04-07T11:48:33.177Z,8.68
2023-04-07T11:51:01.573Z,8.43
2023-04-07T11:53:30.131Z,7.55
2023-04-07T11:56:18.866Z,7.95
2023-04-07T11:58:50.904Z,8.15
2023-04-07T12:01:18.305Z,11.00
2023-04-07T12:03:59.919Z,8.90
2023-04-07T12:06:41.576Z,10.95
2023-04-07T12:09:30.090Z,8.05
2023-04-07T12:11:58.412Z,8.95
2023-04-07T12:14:26.398Z,8.18
2023-04-07T12:16:56.469Z,8.20
2023-04-07T12:19:30.447Z,8.27
2023-04-07T12:21:57.393Z,11.88
2023-04-07T12:24:24.373Z,10.70
2023-04-07T12:26:51.269Z,12.35
2023-04-07T12:29:20.105Z,11.38
2023-04-07T12:31:50.139Z,8.70
2023-04-07T12:34:17.955Z,8.02
2023-04-07T12:36:45.166Z,10.35
2023-04-07T12:39:12.298Z,8.10
2023-04-07T12:41:39.856Z,7.90
2023-04-07T12:44:06.955Z,9.80
2023-04-07T12:46:34.229Z,8.43
2023-04-07T12:49:01.303Z,9.02
2023-04-07T12:51:28.619Z,12.05
2023-04-07T12:53:55.713Z,9.77
2023-04-07T12:56:22.728Z,12.63
2023-04-07T12:58:49.738Z,10.10
2023-04-07T13:01:16.915Z,11.10
2023-04-07T13:03:44.535Z,9.20
2023-04-07T13:06:11.994Z,9.57
2023-04-07T13:08:40.430Z,13.95
2023-04-07T13:11:07.779Z,10.40
2023-04-07T13:13:34.961Z,13.00
2023-04-07T13:16:02.083Z,9.77
2023-04-07T13:18:29.015Z,13.20
2023-04-07T13:21:26.687Z,10.70
2023-04-07T13:23:44.096Z,13.75
2023-04-07T13:26:11.758Z,13.75
2023-04-07T13:28:39.176Z,10.75
2023-04-07T13:31:06.510Z,15.05
2023-04-07T13:33:34.361Z,14.15
2023-04-07T13:36:01.298Z,14.15
2023-04-07T13:38:28.262Z,14.75
2023-04-07T13:40:55.190Z,14.50
2023-04-07T13:43:22.145Z,15.18
2023-04-07T13:45:49.465Z,11.95
2023-04-07T13:48:16.545Z,14.88
2023-04-07T13:50:43.536Z,14.18
2023-04-07T13:53:10.429Z,13.25
2023-04-07T13:55:37.346Z,13.98
2023-04-07T13:58:04.253Z,13.50
2023-04-07T14:00:31.369Z,15.35
2023-04-07T14:02:58.449Z,13.70
2023-04-07T14:05:25.563Z,13.65
2023-04-07T14:07:52.681Z,12.95
2023-04-07T14:10:19.608Z,9.77
2023-04-07T14:12:47.118Z,12.45
2023-04-07T14:15:14.857Z,11.48
2023-04-07T14:17:42.561Z,10.70
2023-04-07T14:20:09.896Z,7.72
2023-04-07T14:22:36.826Z,10.15
2023-04-07T14:25:04.020Z,10.65
2023-04-07T14:27:31.333Z,10.98
2023-04-07T14:29:59.624Z,9.40
2023-04-07T14:32:29.484Z,10.57
2023-04-07T14:34:59.062Z,10.82
2023-04-07T14:37:28.440Z,10.57
2023-04-07T14:42:25.890Z,10.15
2023-04-07T14:44:53.195Z,12.93
2023-04-07T14:47:20.293Z,15.65
2023-04-07T14:49:47.711Z,11.45
2023-04-07T14:52:14.773Z,12.85
2023-04-07T14:54:41.675Z,16.83
2023-04-07T14:57:08.564Z,14.05
2023-04-07T14:59:35.526Z,13.77
2023-04-07T15:02:02.625Z,13.55
2023-04-07T15:04:29.810Z,13.60
2023-04-07T15:06:56.828Z,13.13
2023-04-07T15:09:23.765Z,13.25
2023-04-07T15:11:50.713Z,12.65
2023-04-07T15:14:17.598Z,12.95
2023-04-07T15:16:47.230Z,13.95
2023-04-07T15:19:14.167Z,14.52
2023-04-07T15:21:41.063Z,13.57
2023-04-07T15:24:07.968Z,12.75
2023-04-07T15:26:34.887Z,12.20
2023-04-07T15:29:01.814Z,12.63
2023-04-07T15:31:29.971Z,11.18
2023-04-07T15:33:56.998Z,13.80
2023-04-07T15:36:23.950Z,11.93
2023-04-07T15:38:51.019Z,12.15
2023-04-07T15:41:17.998Z,11.90
2023-04-07T15:43:44.925Z,11.82
2023-04-07T15:46:12.012Z,11.43
2023-04-07T15:48:38.980Z,12.25
2023-04-07T15:51:05.996Z,12.57
2023-04-07T15:53:33.172Z,13.50
2023-04-07T15:56:00.197Z,11.73
2023-04-07T15:58:27.280Z,11.95
2023-04-07T16:00:54.426Z,12.27
2023-04-07T16:03:21.474Z,16.40
2023-04-07T16:05:48.554Z,11.93
2023-04-07T16:08:15.591Z,11.45
2023-04-07T16:10:42.630Z,12.70
2023-04-07T16:13:10.414Z,15.27
2023-04-07T16:15:40.742Z,11.27
2023-04-07T16:18:12.533Z,10.77
2023-04-07T16:20:39.771Z,11.13
2023-04-07T16:23:06.730Z,10.90
2023-04-07T16:25:33.714Z,14.25
2023-04-07T16:28:00.635Z,14.57
2023-04-07T16:30:27.667Z,10.45
2023-04-07T16:32:54.727Z,10.93
2023-04-07T16:35:21.823Z,10.85
2023-04-07T16:37:50.127Z,10.73
2023-04-07T16:40:17.286Z,10.93
2023-04-07T16:42:44.255Z,11.75
2023-04-07T16:45:11.346Z,11.32
2023-04-07T16:47:38.642Z,15.55
2023-04-07T16:50:06.201Z,10.18
2023-04-07T16:52:33.326Z,10.68
2023-04-07T16:55:01.053Z,10.25
2023-04-07T16:57:28.160Z,9.90
2023-04-07T16:59:55.148Z,10.50
2023-04-07T17:02:22.467Z,10.27
2023-04-07T17:04:49.666Z,10.00
2023-04-07T17:07:16.746Z,9.15
2023-04-07T17:09:43.635Z,10.52
2023-04-07T17:12:10.712Z,10.43
2023-04-07T17:14:37.663Z,10.15
2023-04-07T17:17:04.690Z,10.55
2023-04-07T17:19:31.852Z,11.55
2023-04-07T17:21:58.804Z,10.57
2023-04-07T17:24:25.687Z,9.45
2023-04-07T17:26:52.591Z,8.25
2023-04-07T17:29:21.062Z,9.52
2023-04-07T17:31:49.746Z,9.48
2023-04-07T17:34:17.204Z,9.02
2023-04-07T17:36:44.145Z,9.63
2023-04-07T17:39:11.168Z,10.10
2023-04-07T17:41:38.584Z,9.90
2023-04-07T17:44:06.179Z,9.35
2023-04-07T17:46:33.458Z,9.95
2023-04-07T17:49:01.375Z,9.45
2023-04-07T17:51:28.906Z,9.75
2023-04-07T17:53:56.885Z,10.35
2023-04-07T17:56:24.604Z,9.88
2023-04-07T17:58:51.586Z,9.23
2023-04-07T18:01:18.642Z,8.88
2023-04-07T18:03:45.815Z,9.13
2023-04-07T18:06:19.072Z,8.98
2023-04-07T18:08:47.712Z,8.27
2023-04-07T18:11:15.531Z,8.52
2023-04-07T18:13:42.842Z,7.93
2023-04-07T18:16:17.296Z,8.77
2023-04-07T18:18:46.451Z,9.27
2023-04-07T18:21:13.384Z,10.20
2023-04-07T18:23:40.271Z,9.13
2023-04-07T18:26:07.274Z,9.75
2023-04-07T18:28:34.707Z,10.13
2023-04-07T18:31:06.419Z,10.00
2023-04-07T18:33:34.297Z,10.23
2023-04-07T18:36:04.360Z,9.73
2023-04-07T18:38:31.604Z,10.10
2023-04-07T18:40:59.056Z,10.45
2023-04-07T18:43:28.623Z,10.70
2023-04-07T18:45:56.493Z,10.95
2023-04-07T18:48:23.486Z,10.70
2023-04-07T18:50:52.156Z,10.43
2023-04-07T18:53:22.926Z,10.52
2023-04-07T18:55:50.349Z,10.23
2023-04-07T18:58:17.422Z,10.77
2023-04-07T19:00:44.700Z,11.45
2023-04-07T19:03:11.998Z,11.25
2023-04-07T19:05:39.935Z,10.68
2023-04-07T19:08:07.210Z,10.55
2023-04-07T19:10:34.871Z,10.73
2023-04-07T19:13:01.898Z,11.52
2023-04-07T19:15:34.220Z,11.07
2023-04-07T19:18:02.052Z,28.02
2023-04-07T19:20:33.893Z,10.40
2023-04-07T19:23:01.807Z,11.50
2023-04-07T19:25:54.957Z,11.02
2023-04-07T19:28:21.957Z,10.70
2023-04-07T19:30:48.868Z,11.63
2023-04-07T19:33:16.186Z,11.23
2023-04-07T19:35:43.219Z,12.75
2023-04-07T19:38:10.359Z,11.98
2023-04-07T19:40:37.417Z,12.13
2023-04-07T19:43:04.477Z,12.20
2023-04-07T19:45:31.467Z,11.32
2023-04-07T19:47:59.221Z,12.45
2023-04-07T19:50:28.193Z,11.55
2023-04-07T19:52:55.191Z,11.07
2023-04-07T19:55:22.237Z,10.30
2023-04-07T19:57:49.469Z,11.23
2023-04-07T20:00:16.764Z,11.07
2023-04-07T20:02:50.467Z,11.80
2023-04-07T20:05:18.629Z,11.63
2023-04-07T20:07:45.932Z,11.45
2023-04-07T20:10:12.861Z,11.68
2023-04-07T20:12:39.784Z,12.30
2023-04-07T20:15:07.913Z,12.13
2023-04-07T20:17:36.864Z,11.70
2023-04-07T20:20:04.952Z,11.65
2023-04-07T20:22:33.902Z,11.18
2023-04-07T20:25:04.837Z,11.93
2023-04-07T20:27:32.281Z,11.50
2023-04-07T20:29:59.336Z,10.82
2023-04-07T20:32:26.955Z,11.70
2023-04-07T20:34:54.760Z,11.27
2023-04-07T20:37:22.771Z,12.00
2023-04-07T20:39:49.921Z,12.63
2023-04-07T20:42:17.630Z,11.70
2023-04-07T20:44:48.774Z,11.75
2023-04-07T20:47:15.725Z,12.32
2023-04-07T20:49:43.786Z,11.57
2023-04-07T20:52:11.032Z,12.02
2023-04-07T20:54:37.930Z,11.90
2023-04-07T20:57:04.831Z,10.85
2023-04-07T20:59:32.690Z,11.55
2023-04-07T21:01:59.866Z,10.88
2023-04-07T21:04:27.470Z,11.07
2023-04-07T21:06:54.510Z,11.05
2023-04-07T21:09:21.452Z,12.68
2023-04-07T21:11:48.420Z,11.27
2023-04-07T21:14:15.685Z,12.05
2023-04-07T21:16:43.462Z,11.35
2023-04-07T21:19:11.128Z,11.93
2023-04-07T21:21:38.083Z,11.13
2023-04-07T21:24:05.217Z,10.95
2023-04-07T21:26:32.425Z,12.65
2023-04-07T21:28:59.365Z,13.73
2023-04-07T21:31:26.730Z,13.57
2023-04-07T21:33:53.765Z,13.75
2023-04-07T21:36:20.693Z,13.20
2023-04-07T21:38:47.976Z,13.02
2023-04-07T21:41:15.470Z,13.30
2023-04-07T21:43:42.447Z,13.65
2023-04-07T21:46:09.501Z,12.48
2023-04-07T21:48:36.734Z,13.55
2023-04-07T21:51:03.805Z,13.95
2023-04-07T21:53:30.767Z,13.68
2023-04-07T21:55:57.880Z,15.02
2023-04-07T21:58:25.253Z,15.43
2023-04-07T22:00:53.240Z,14.40
2023-04-07T22:03:20.418Z,13.60
2023-04-07T22:05:47.647Z,14.30
2023-04-07T22:08:14.690Z,14.13
2023-04-07T22:10:41.620Z,12.52
2023-04-07T22:13:09.485Z,12.73
2023-04-07T22:15:36.424Z,13.90
2023-04-07T22:18:03.616Z,13.88
2023-04-07T22:20:30.849Z,12.60
2023-04-07T22:22:57.976Z,12.40
2023-04-07T22:25:25.610Z,13.18
2023-04-07T22:27:52.859Z,13.07
2023-04-07T22:30:20.725Z,14.10
2023-04-07T22:32:48.240Z,13.77
2023-04-07T22:35:15.626Z,13.88
2023-04-07T22:37:42.597Z,12.93
2023-04-07T22:40:10.504Z,13.05
2023-04-07T22:42:37.854Z,13.27
2023-04-07T22:45:05.622Z,13.65
2023-04-07T22:47:32.558Z,14.32
2023-04-07T22:49:59.695Z,12.73
2023-04-07T22:52:26.641Z,13.65
2023-04-07T22:54:53.921Z,13.13
2023-04-07T22:57:21.333Z,12.32
2023-04-07T22:59:48.336Z,12.95
2023-04-07T23:02:15.369Z,13.00
2023-04-07T23:04:42.418Z,14.15
2023-04-07T23:07:09.373Z,14.02
2023-04-07T23:09:36.588Z,13.35
2023-04-07T23:12:04.219Z,14.50
2023-04-07T23:14:31.373Z,12.68
2023-04-07T23:16:58.633Z,15.13
2023-04-07T23:19:25.607Z,14.95
2023-04-07T23:21:53.560Z,13.75
2023-04-07T23:24:20.581Z,13.52
2023-04-07T23:26:47.531Z,13.40
2023-04-07T23:29:14.403Z,14.20
2023-04-07T23:31:41.533Z,13.05
2023-04-07T23:34:08.475Z,14.38
2023-04-07T23:36:35.795Z,13.02
2023-04-07T23:39:02.802Z,13.88
2023-04-07T23:41:29.793Z,14.50
2023-04-07T23:43:57.102Z,15.15
2023-04-07T23:46:24.436Z,14.07
2023-04-07T23:48:51.619Z,14.80
2023-04-07T23:51:19.403Z,15.77
2023-04-07T23:53:46.468Z,15.20
2023-04-07T23:56:13.410Z,16.08
2023-04-07T23:58:40.508Z,17.10
